Time;durP1;ratioP1;P1;durP2;ratioP2;P2;SDS_P1;SDS_P2;PMS_P1;PMS_P2;Temp;Humidity;BMP_temperature;BMP_pressure;BME280_temperature;BME280_humidity;BME280_pressure;Samples;Min_cycle;Max_cycle;Signal;HPM_P1;HPM_P2
2022/06/02 00:01:43;;;;;;;8.13;6.07;;;;;;;;;;5090021;28;20200;-73
2022/06/02 00:04:10;;;;;;;8.03;6.37;;;;;;;;;;5123192;27;20278;-72
2022/06/02 00:06:50;;;;;;;9.67;6.23;;;;;;;;;;5090610;28;20192;-72
2022/06/02 00:09:17;;;;;;;9.30;6.67;;;;;;;;;;5089580;28;20188;-72
2022/06/02 00:11:50;;;;;;;7.73;6.40;;;;;;;;;;5090719;28;20312;-72
2022/06/02 00:14:29;;;;;;;8.20;6.60;;;;;;;;;;5089571;28;20673;-73
2022/06/02 00:17:16;;;;;;;9.33;6.43;;;;;;;;;;5090491;28;20192;-75
2022/06/02 00:19:47;;;;;;;9.37;6.83;;;;;;;;;;5082961;28;20237;-75
2022/06/02 00:22:18;;;;;;;8.00;6.60;;;;;;;;;;5089197;28;20245;-73
2022/06/02 00:24:45;;;;;;;8.17;5.97;;;;;;;;;;5090469;28;20186;-74
2022/06/02 00:27:24;;;;;;;9.10;6.57;;;;;;;;;;5089173;28;20191;-75
2022/06/02 00:30:00;;;;;;;9.53;7.13;;;;;;;;;;5122778;27;20192;-75
2022/06/02 00:32:30;;;;;;;10.53;6.60;;;;;;;;;;5088869;28;20265;-74
2022/06/02 00:35:10;;;;;;;10.40;6.77;;;;;;;;;;5089927;28;20193;-74
2022/06/02 00:37:57;;;;;;;9.40;7.17;;;;;;;;;;5090290;28;20188;-74
2022/06/02 00:40:25;;;;;;;10.90;7.67;;;;;;;;;;5089245;28;20540;-74
2022/06/02 00:42:52;;;;;;;10.27;7.93;;;;;;;;;;5089845;28;20189;-75
2022/06/02 00:45:20;;;;;;;13.00;8.37;;;;;;;;;;5089839;28;20181;-75
2022/06/02 00:47:59;;;;;;;9.30;8.10;;;;;;;;;;5089042;28;20211;-75
2022/06/02 00:50:31;;;;;;;12.80;9.33;;;;;;;;;;5089996;28;20211;-75
2022/06/02 00:53:18;;;;;;;12.60;8.37;;;;;;;;;;5089131;28;20193;-76
2022/06/02 00:58:50;;;;;;;10.77;8.70;;;;;;;;;;5089747;28;20292;-74
2022/06/02 01:01:35;;;;;;;8.23;7.43;;;;;;;;;;5087885;28;20202;-75
2022/06/02 01:04:04;;;;;;;10.43;8.00;;;;;;;;;;5089713;28;20755;-75
2022/06/02 01:06:31;;;;;;;7.83;6.97;;;;;;;;;;5089227;28;20188;-76
2022/06/02 01:08:58;;;;;;;9.00;7.03;;;;;;;;;;5089097;28;20200;-75
2022/06/02 01:11:31;;;;;;;9.63;7.17;;;;;;;;;;5089808;28;20194;-75
2022/06/02 01:13:59;;;;;;;8.77;7.03;;;;;;;;;;5088711;28;20205;-76
2022/06/02 01:16:31;;;;;;;8.47;6.93;;;;;;;;;;5089654;28;20665;-75
2022/06/02 01:19:31;;;;;;;10.03;6.90;;;;;;;;;;5088862;28;20253;-75
2022/06/02 01:22:16;;;;;;;8.47;6.63;;;;;;;;;;5065602;28;20239;-75
2022/06/02 01:24:44;;;;;;;7.80;6.47;;;;;;;;;;5088209;28;20312;-76
2022/06/02 01:27:11;;;;;;;7.57;6.23;;;;;;;;;;5086823;28;20698;-76
2022/06/02 01:30:13;;;;;;;7.87;6.67;;;;;;;;;;5087819;28;20202;-76
2022/06/02 01:32:47;;;;;;;7.80;6.50;;;;;;;;;;5029808;28;20740;-76
2022/06/02 01:35:14;;;;;;;9.30;6.23;;;;;;;;;;5081911;28;20640;-75
2022/06/02 01:37:47;;;;;;;9.23;6.20;;;;;;;;;;5087821;28;20200;-75
2022/06/02 01:40:13;;;;;;;8.73;6.33;;;;;;;;;;5087569;28;20307;-76
2022/06/02 01:42:46;;;;;;;11.07;6.27;;;;;;;;;;5088852;28;20185;-75
2022/06/02 01:45:13;;;;;;;7.27;6.13;;;;;;;;;;5088401;28;20609;-75
2022/06/02 01:47:42;;;;;;;9.33;6.70;;;;;;;;;;5121568;27;20235;-73
2022/06/02 01:50:16;;;;;;;8.73;6.27;;;;;;;;;;5087180;28;20190;-75
2022/06/02 01:52:49;;;;;;;12.83;6.57;;;;;;;;;;5087697;28;20261;-76
2022/06/02 01:55:16;;;;;;;8.43;6.60;;;;;;;;;;5104626;27;20202;-74
2022/06/02 01:57:43;;;;;;;8.50;5.50;;;;;;;;;;5087558;28;20879;-74
2022/06/02 02:00:12;;;;;;;13.30;6.73;;;;;;;;;;5088432;28;21119;-74
2022/06/02 02:02:39;;;;;;;6.30;5.57;;;;;;;;;;5088050;28;20271;-74
2022/06/02 02:05:17;;;;;;;8.47;5.90;;;;;;;;;;5087967;28;20197;-73
2022/06/02 02:07:54;;;;;;;7.63;6.33;;;;;;;;;;5088471;28;20198;-74
2022/06/02 02:10:40;;;;;;;10.67;7.07;;;;;;;;;;5085853;28;20180;-74
2022/06/02 02:13:16;;;;;;;9.67;6.53;;;;;;;;;;5087508;28;20213;-75
2022/06/02 02:15:55;;;;;;;10.07;6.37;;;;;;;;;;5088189;28;20569;-76
2022/06/02 02:18:22;;;;;;;8.17;6.53;;;;;;;;;;5086239;28;20584;-74
2022/06/02 02:20:58;;;;;;;12.70;6.20;;;;;;;;;;5088618;28;20197;-74
2022/06/02 02:23:35;;;;;;;7.63;5.83;;;;;;;;;;5086712;28;20666;-75
2022/06/02 02:26:07;;;;;;;10.83;5.93;;;;;;;;;;5088049;28;20189;-75
2022/06/02 02:28:43;;;;;;;7.70;6.10;;;;;;;;;;5087653;28;20209;-73
2022/06/02 02:31:17;;;;;;;8.60;6.50;;;;;;;;;;5087207;28;20241;-75
2022/06/02 02:33:46;;;;;;;9.40;6.53;;;;;;;;;;5087920;28;20193;-74
2022/06/02 02:36:19;;;;;;;6.80;6.03;;;;;;;;;;5086557;28;20622;-74
2022/06/02 02:39:21;;;;;;;7.97;6.03;;;;;;;;;;5087732;28;20254;-73
2022/06/02 02:41:52;;;;;;;7.20;6.30;;;;;;;;;;5044658;28;20199;-72
2022/06/02 02:44:25;;;;;;;10.53;6.50;;;;;;;;;;5079512;28;20679;-73
2022/06/02 02:46:52;;;;;;;8.80;7.53;;;;;;;;;;5087944;28;20739;-73
2022/06/02 02:49:29;;;;;;;8.83;7.10;;;;;;;;;;5068425;28;20209;-74
2022/06/02 02:52:01;;;;;;;11.70;7.13;;;;;;;;;;5087688;28;20600;-74
2022/06/02 02:54:28;;;;;;;8.73;6.90;;;;;;;;;;5086804;28;20551;-73
2022/06/02 02:57:09;;;;;;;9.07;7.53;;;;;;;;;;5087162;28;20193;-73
2022/06/02 02:59:51;;;;;;;10.27;6.50;;;;;;;;;;5087538;28;20221;-74
2022/06/02 03:02:50;;;;;;;10.83;7.40;;;;;;;;;;5086442;28;20185;-74
2022/06/02 03:05:39;;;;;;;9.13;7.13;;;;;;;;;;5064762;28;20284;-72
2022/06/02 03:08:19;;;;;;;10.97;6.47;;;;;;;;;;5087384;28;20196;-74
2022/06/02 03:10:47;;;;;;;9.70;6.37;;;;;;;;;;5086227;28;20222;-74
2022/06/02 03:13:32;;;;;;;10.83;6.87;;;;;;;;;;5087356;28;20193;-74
2022/06/02 03:16:02;;;;;;;8.57;6.40;;;;;;;;;;5084858;28;20201;-74
2022/06/02 03:18:41;;;;;;;9.50;6.13;;;;;;;;;;5085678;28;20191;-74
2022/06/02 03:21:20;;;;;;;8.10;5.83;;;;;;;;;;5087328;28;20551;-74
2022/06/02 03:24:05;;;;;;;6.57;5.90;;;;;;;;;;5085681;28;20194;-73
2022/06/02 03:26:44;;;;;;;9.17;5.80;;;;;;;;;;5087372;28;20195;-74
2022/06/02 03:29:14;;;;;;;7.23;5.60;;;;;;;;;;5086691;28;20187;-75
2022/06/02 03:31:57;;;;;;;8.00;5.30;;;;;;;;;;5086508;28;20232;-74
2022/06/02 03:34:29;;;;;;;10.83;5.80;;;;;;;;;;5087301;28;20195;-75
2022/06/02 03:37:13;;;;;;;11.47;6.10;;;;;;;;;;5085778;28;20222;-73
2022/06/02 03:40:01;;;;;;;8.13;5.73;;;;;;;;;;5086827;28;20314;-73
2022/06/02 03:42:49;;;;;;;8.47;5.33;;;;;;;;;;5068812;28;20586;-73
2022/06/02 03:45:31;;;;;;;9.97;6.73;;;;;;;;;;5085913;28;20277;-73
2022/06/02 03:47:58;;;;;;;9.40;5.93;;;;;;;;;;5085620;28;20199;-73
2022/06/02 03:50:50;;;;;;;8.90;6.03;;;;;;;;;;5086075;28;20195;-73
2022/06/02 03:53:23;;;;;;;11.27;6.10;;;;;;;;;;5085871;28;20214;-76
2022/06/02 03:55:56;;;;;;;8.93;5.13;;;;;;;;;;5086840;28;20192;-73
2022/06/02 03:58:26;;;;;;;5.93;5.27;;;;;;;;;;5085544;28;20208;-74
2022/06/02 04:00:54;;;;;;;6.07;5.27;;;;;;;;;;5085074;28;20224;-73
2022/06/02 04:03:24;;;;;;;10.90;5.93;;;;;;;;;;5084759;28;20181;-72
2022/06/02 04:05:56;;;;;;;11.10;5.77;;;;;;;;;;5086595;28;20184;-71
2022/06/02 04:08:26;;;;;;;8.13;5.40;;;;;;;;;;5086822;28;20195;-71
2022/06/02 04:11:12;;;;;;;6.13;5.33;;;;;;;;;;5085700;28;20546;-72
2022/06/02 04:13:54;;;;;;;8.43;5.80;;;;;;;;;;5085368;28;20189;-73
2022/06/02 04:16:39;;;;;;;9.03;5.03;;;;;;;;;;5119162;27;20185;-73
2022/06/02 04:22:16;;;;;;;8.90;5.00;;;;;;;;;;5106417;28;20244;-74
2022/06/02 04:25:19;;;;;;;7.00;5.57;;;;;;;;;;5087748;28;20576;-73
2022/06/02 04:27:50;;;;;;;10.30;6.40;;;;;;;;;;5043105;28;20196;-73
2022/06/02 04:30:46;;;;;;;9.10;6.37;;;;;;;;;;5097037;28;20191;-73
2022/06/02 04:33:21;;;;;;;12.70;6.30;;;;;;;;;;5034114;28;20696;-75
2022/06/02 04:35:57;;;;;;;7.40;5.17;;;;;;;;;;5106073;28;20206;-75
2022/06/02 04:38:27;;;;;;;7.33;5.47;;;;;;;;;;5110200;28;20606;-75
2022/06/02 04:41:06;;;;;;;9.13;5.57;;;;;;;;;;5109331;28;20225;-75
2022/06/02 04:43:38;;;;;;;15.33;6.47;;;;;;;;;;5110479;28;20265;-74
2022/06/02 04:46:05;;;;;;;9.57;5.73;;;;;;;;;;5109161;28;20209;-74
2022/06/02 04:48:41;;;;;;;10.33;6.77;;;;;;;;;;5110128;28;20196;-76
2022/06/02 04:51:12;;;;;;;7.20;6.50;;;;;;;;;;5109531;28;20191;-76
2022/06/02 04:53:45;;;;;;;7.20;6.17;;;;;;;;;;5108208;28;20191;-76
2022/06/02 04:56:33;;;;;;;10.43;7.60;;;;;;;;;;5110189;28;20201;-74
2022/06/02 04:59:16;;;;;;;8.60;6.37;;;;;;;;;;5108674;28;20191;-76
2022/06/02 05:02:02;;;;;;;11.53;6.80;;;;;;;;;;5108751;28;20582;-74
2022/06/02 05:04:33;;;;;;;9.10;5.83;;;;;;;;;;5109705;28;20196;-76
2022/06/02 05:07:09;;;;;;;8.83;6.27;;;;;;;;;;5107822;28;20205;-74
2022/06/02 05:09:45;;;;;;;8.53;6.37;;;;;;;;;;5109872;28;20634;-74
2022/06/02 05:12:15;;;;;;;8.40;6.63;;;;;;;;;;5107228;28;20274;-74
2022/06/02 05:15:01;;;;;;;9.10;7.07;;;;;;;;;;5110192;28;20738;-74
2022/06/02 05:17:48;;;;;;;7.13;6.20;;;;;;;;;;5109485;27;20247;-77
2022/06/02 05:20:27;;;;;;;9.47;6.23;;;;;;;;;;5108625;28;20285;-74
2022/06/02 05:23:13;;;;;;;9.50;5.93;;;;;;;;;;5109573;28;20211;-75
2022/06/02 05:25:52;;;;;;;7.87;6.17;;;;;;;;;;5108877;28;20218;-73
2022/06/02 05:28:19;;;;;;;7.87;5.57;;;;;;;;;;5107530;28;20231;-76
2022/06/02 05:30:58;;;;;;;7.77;5.90;;;;;;;;;;5109269;28;20201;-75
2022/06/02 05:33:25;;;;;;;8.63;5.80;;;;;;;;;;5108091;28;20787;-76
2022/06/02 05:36:01;;;;;;;5.80;5.27;;;;;;;;;;5109593;28;20219;-73
2022/06/02 05:38:36;;;;;;;8.80;5.07;;;;;;;;;;5108270;28;20193;-75
2022/06/02 05:41:18;;;;;;;8.73;4.37;;;;;;;;;;5108563;28;20276;-73
2022/06/02 05:43:48;;;;;;;8.80;4.50;;;;;;;;;;5107903;28;20192;-74
2022/06/02 05:46:21;;;;;;;12.60;4.93;;;;;;;;;;5107975;28;20191;-73
2022/06/02 05:48:51;;;;;;;9.87;4.90;;;;;;;;;;5109203;28;20180;-74
2022/06/02 05:51:37;;;;;;;4.83;3.70;;;;;;;;;;5107930;27;20570;-75
2022/06/02 05:54:14;;;;;;;7.20;5.10;;;;;;;;;;5107339;28;20201;-75
2022/06/02 05:57:19;;;;;;;8.27;3.63;;;;;;;;;;5108926;28;20354;-75
2022/06/02 05:59:46;;;;;;;7.30;4.00;;;;;;;;;;5064073;28;20719;-75
2022/06/02 06:02:37;;;;;;;9.53;4.83;;;;;;;;;;5048921;28;20224;-74
2022/06/02 06:05:14;;;;;;;7.97;4.13;;;;;;;;;;5069351;28;20215;-76
2022/06/02 06:07:54;;;;;;;6.17;4.77;;;;;;;;;;5107668;28;20666;-74
2022/06/02 06:10:40;;;;;;;6.77;3.90;;;;;;;;;;5108654;27;20188;-77
2022/06/02 06:13:26;;;;;;;10.57;4.07;;;;;;;;;;5107772;28;20260;-75
2022/06/02 06:16:12;;;;;;;13.13;5.93;;;;;;;;;;5107848;28;20544;-75
2022/06/02 06:18:56;;;;;;;9.97;4.00;;;;;;;;;;5108352;28;20193;-75
2022/06/02 06:21:25;;;;;;;10.50;4.23;;;;;;;;;;5088855;28;20251;-73
2022/06/02 06:23:59;;;;;;;7.23;4.37;;;;;;;;;;5108294;28;20180;-73
2022/06/02 06:26:33;;;;;;;4.70;4.07;;;;;;;;;;5107917;28;20238;-74
2022/06/02 06:29:18;;;;;;;10.77;5.03;;;;;;;;;;5107818;28;20252;-77
2022/06/02 06:32:02;;;;;;;8.70;4.90;;;;;;;;;;5108032;28;20237;-76
2022/06/02 06:34:35;;;;;;;7.27;4.40;;;;;;;;;;5105534;28;20219;-75
2022/06/02 06:37:11;;;;;;;15.47;4.97;;;;;;;;;;5108054;28;20628;-74
2022/06/02 06:39:48;;;;;;;5.67;4.43;;;;;;;;;;5108167;28;20219;-74
2022/06/02 06:42:27;;;;;;;7.03;3.70;;;;;;;;;;5106773;28;20183;-74
2022/06/02 06:45:04;;;;;;;7.73;4.30;;;;;;;;;;5108188;28;20259;-76
2022/06/02 06:47:40;;;;;;;8.33;4.20;;;;;;;;;;5106703;28;20190;-73
2022/06/02 06:50:13;;;;;;;5.97;4.10;;;;;;;;;;5107702;28;20188;-74
2022/06/02 06:53:18;;;;;;;9.83;7.10;;;;;;;;;;5108187;28;20249;-76
2022/06/02 06:55:49;;;;;;;7.43;5.73;;;;;;;;;;5063483;28;20287;-75
2022/06/02 06:58:36;;;;;;;7.10;6.00;;;;;;;;;;5101806;28;20246;-75
2022/06/02 07:01:06;;;;;;;14.30;6.97;;;;;;;;;;5088884;28;20227;-74
2022/06/02 07:03:52;;;;;;;7.47;4.40;;;;;;;;;;5107165;28;20314;-77
2022/06/02 07:06:31;;;;;;;6.63;3.77;;;;;;;;;;5108479;28;20196;-77
2022/06/02 07:09:01;;;;;;;6.97;3.77;;;;;;;;;;5106721;28;20183;-77
2022/06/02 07:14:44;;;;;;;9.07;4.20;;;;;;;;;;5107752;28;20176;-77
2022/06/02 07:17:30;;;;;;;7.57;4.20;;;;;;;;;;5106012;28;20267;-74
2022/06/02 07:20:43;;;;;;;8.33;4.13;;;;;;;;;;5107430;28;20582;-75
2022/06/02 07:23:20;;;;;;;8.47;4.17;;;;;;;;;;5090475;28;20238;-75
2022/06/02 07:26:06;;;;;;;6.40;4.67;;;;;;;;;;5105294;28;20599;-74
2022/06/02 07:28:32;;;;;;;6.90;4.17;;;;;;;;;;5108338;28;20184;-74
2022/06/02 07:31:22;;;;;;;7.00;4.03;;;;;;;;;;5107031;28;20188;-75
2022/06/02 07:33:53;;;;;;;6.10;3.80;;;;;;;;;;5101382;28;20290;-75
2022/06/02 07:36:46;;;;;;;6.83;3.83;;;;;;;;;;5106689;28;20188;-73
2022/06/02 07:39:12;;;;;;;9.33;3.87;;;;;;;;;;5106897;28;20184;-77
2022/06/02 07:42:04;;;;;;;12.10;4.63;;;;;;;;;;5108344;28;20907;-75
2022/06/02 07:44:47;;;;;;;9.30;4.47;;;;;;;;;;5108256;28;20232;-75
2022/06/02 07:47:14;;;;;;;6.27;4.63;;;;;;;;;;5107378;28;20219;-74
2022/06/02 07:49:44;;;;;;;12.10;5.03;;;;;;;;;;5109424;28;20191;-74
2022/06/02 07:52:17;;;;;;;10.73;5.20;;;;;;;;;;5107235;28;20188;-74
2022/06/02 07:55:01;;;;;;;6.07;4.27;;;;;;;;;;5109735;28;20192;-75
2022/06/02 07:57:37;;;;;;;11.93;5.00;;;;;;;;;;5108907;28;20196;-74
2022/06/02 08:00:21;;;;;;;7.67;4.40;;;;;;;;;;5114742;28;20209;-74
2022/06/02 08:03:02;;;;;;;6.87;3.97;;;;;;;;;;5117803;28;20188;-74
2022/06/02 08:05:48;;;;;;;7.47;4.90;;;;;;;;;;5108964;28;20196;-73
2022/06/02 08:08:30;;;;;;;7.27;5.23;;;;;;;;;;5108466;28;20196;-73
2022/06/02 08:11:03;;;;;;;6.17;4.40;;;;;;;;;;5108907;28;20554;-75
2022/06/02 08:13:39;;;;;;;6.07;4.13;;;;;;;;;;5108972;28;20277;-74
2022/06/02 08:16:06;;;;;;;7.93;4.37;;;;;;;;;;5109988;28;20199;-74
2022/06/02 08:18:57;;;;;;;8.17;5.40;;;;;;;;;;5108787;28;20246;-75
2022/06/02 08:21:29;;;;;;;5.63;4.60;;;;;;;;;;5079925;28;20241;-75
2022/06/02 08:24:08;;;;;;;9.47;4.67;;;;;;;;;;5109453;28;20194;-73
2022/06/02 08:26:39;;;;;;;9.27;4.43;;;;;;;;;;5109951;28;20540;-75
2022/06/02 08:29:13;;;;;;;10.17;5.40;;;;;;;;;;5110947;28;20281;-74
2022/06/02 08:31:46;;;;;;;8.20;4.33;;;;;;;;;;5110117;28;20191;-75
2022/06/02 08:34:35;;;;;;;6.03;4.40;;;;;;;;;;5108240;28;20659;-75
2022/06/02 08:37:34;;;;;;;5.47;3.87;;;;;;;;;;5110184;28;20223;-74
2022/06/02 08:40:35;;;;;;;6.33;3.80;;;;;;;;;;5109143;28;20239;-75
2022/06/02 08:43:19;;;;;;;6.07;4.00;;;;;;;;;;5090884;28;20275;-75
2022/06/02 08:46:03;;;;;;;6.67;4.67;;;;;;;;;;5107457;28;20183;-74
2022/06/02 08:49:03;;;;;;;5.47;4.60;;;;;;;;;;5106594;28;20550;-76
2022/06/02 08:51:56;;;;;;;7.17;4.60;;;;;;;;;;5107087;28;20275;-73
2022/06/02 08:54:43;;;;;;;12.00;4.27;;;;;;;;;;5110249;28;20191;-74
2022/06/02 08:57:42;;;;;;;7.63;3.93;;;;;;;;;;5108537;28;20245;-74
2022/06/02 09:00:29;;;;;;;6.37;4.83;;;;;;;;;;5108435;28;20251;-74
2022/06/02 09:03:29;;;;;;;8.77;5.77;;;;;;;;;;5110090;28;20218;-75
2022/06/02 09:06:09;;;;;;;5.10;3.83;;;;;;;;;;5108239;28;20219;-72
2022/06/02 09:08:56;;;;;;;11.23;4.80;;;;;;;;;;5108604;28;20264;-76
2022/06/02 09:11:44;;;;;;;9.80;5.20;;;;;;;;;;5109769;28;20184;-72
2022/06/02 09:14:43;;;;;;;11.37;5.07;;;;;;;;;;5108296;28;20867;-74
2022/06/02 09:17:54;;;;;;;13.87;5.53;;;;;;;;;;5108528;28;20180;-74
2022/06/02 09:20:55;;;;;;;7.43;4.07;;;;;;;;;;5107639;28;20227;-74
2022/06/02 09:24:14;;;;;;;10.43;4.40;;;;;;;;;;5104553;28;20266;-76
2022/06/02 09:26:59;;;;;;;9.40;4.30;;;;;;;;;;5105533;28;20211;-75
2022/06/02 09:30:05;;;;;;;5.30;4.57;;;;;;;;;;5108768;28;20263;-74
2022/06/02 09:33:33;;;;;;;7.30;3.90;;;;;;;;;;5109071;28;20188;-75
2022/06/02 09:36:17;;;;;;;3.67;3.23;;;;;;;;;;5106404;28;20192;-74
2022/06/02 09:39:18;;;;;;;6.30;4.43;;;;;;;;;;5108368;28;20191;-74
2022/06/02 09:42:18;;;;;;;5.00;3.60;;;;;;;;;;5109204;28;20231;-74
2022/06/02 09:45:14;;;;;;;5.87;3.57;;;;;;;;;;5108550;28;20180;-74
2022/06/02 09:48:24;;;;;;;7.60;4.33;;;;;;;;;;5107797;28;20643;-75
2022/06/02 09:51:14;;;;;;;7.57;3.97;;;;;;;;;;5107029;28;20184;-74
2022/06/02 09:54:01;;;;;;;8.10;4.33;;;;;;;;;;5108481;28;20279;-74
2022/06/02 09:57:00;;;;;;;7.83;4.80;;;;;;;;;;5107384;28;20184;-74
2022/06/02 10:00:01;;;;;;;5.50;3.50;;;;;;;;;;5108641;28;20349;-74
2022/06/02 10:03:14;;;;;;;6.40;3.80;;;;;;;;;;5108511;28;20198;-73
2022/06/02 10:05:57;;;;;;;3.77;3.20;;;;;;;;;;5106737;28;20188;-75
2022/06/02 10:08:38;;;;;;;8.50;5.70;;;;;;;;;;5090961;28;20326;-76
2022/06/02 10:11:28;;;;;;;4.07;3.20;;;;;;;;;;5108209;28;20741;-75
2022/06/02 10:14:27;;;;;;;6.20;3.60;;;;;;;;;;5104841;28;20203;-74
2022/06/02 10:17:27;;;;;;;5.30;4.07;;;;;;;;;;5108294;28;20246;-75
2022/06/02 10:20:40;;;;;;;6.23;3.87;;;;;;;;;;5108248;28;20309;-75
2022/06/02 10:23:44;;;;;;;6.33;3.60;;;;;;;;;;5086865;28;20241;-74
2022/06/02 10:26:47;;;;;;;6.57;3.77;;;;;;;;;;5105408;28;20957;-74
2022/06/02 10:29:48;;;;;;;6.37;3.60;;;;;;;;;;5107979;28;20305;-75
2022/06/02 10:32:47;;;;;;;6.33;3.47;;;;;;;;;;5107204;28;20232;-76
2022/06/02 10:35:43;;;;;;;6.83;4.17;;;;;;;;;;5106346;28;20680;-75
2022/06/02 10:38:33;;;;;;;4.37;3.30;;;;;;;;;;5107991;28;20187;-75
2022/06/02 10:41:32;;;;;;;8.13;4.03;;;;;;;;;;5105812;28;20227;-77
2022/06/02 10:44:33;;;;;;;5.07;3.70;;;;;;;;;;5089415;28;20211;-74
2022/06/02 10:47:33;;;;;;;8.33;5.70;;;;;;;;;;5108199;28;20198;-74
2022/06/02 10:50:17;;;;;;;5.27;3.47;;;;;;;;;;5105769;28;20339;-73
2022/06/02 10:53:07;;;;;;;8.57;4.20;;;;;;;;;;5106029;28;20290;-73
2022/06/02 10:55:48;;;;;;;5.80;3.67;;;;;;;;;;5107830;28;20243;-74
2022/06/02 10:58:39;;;;;;;5.40;4.23;;;;;;;;;;5090289;28;20285;-74
2022/06/02 11:01:19;;;;;;;4.13;2.90;;;;;;;;;;5106097;28;20236;-75
2022/06/02 11:04:19;;;;;;;5.23;3.87;;;;;;;;;;5107897;28;20239;-74
2022/06/02 11:07:18;;;;;;;4.37;3.20;;;;;;;;;;5089795;28;20190;-74
2022/06/02 11:09:59;;;;;;;5.47;3.37;;;;;;;;;;5089357;28;20195;-74
2022/06/02 11:12:40;;;;;;;3.47;2.83;;;;;;;;;;5104891;28;20234;-74
2022/06/02 11:15:21;;;;;;;3.60;3.00;;;;;;;;;;5106194;28;20185;-75
2022/06/02 11:18:08;;;;;;;5.40;4.57;;;;;;;;;;5107034;28;20196;-75
2022/06/02 11:21:03;;;;;;;4.37;2.87;;;;;;;;;;5107597;28;20681;-76
2022/06/02 11:24:03;;;;;;;2.30;2.10;;;;;;;;;;5105922;28;20565;-76
2022/06/02 11:26:44;;;;;;;5.47;3.00;;;;;;;;;;5106543;28;21017;-77
2022/06/02 11:29:37;;;;;;;4.00;2.60;;;;;;;;;;5105353;28;20746;-76
2022/06/02 11:32:36;;;;;;;6.03;3.50;;;;;;;;;;5089102;28;20573;-76
2022/06/02 11:35:17;;;;;;;3.50;2.50;;;;;;;;;;5089594;28;20619;-73
2022/06/02 11:38:16;;;;;;;3.20;2.50;;;;;;;;;;5107859;28;20218;-74
2022/06/02 11:41:00;;;;;;;4.77;2.77;;;;;;;;;;5105802;28;20711;-73
2022/06/02 11:43:43;;;;;;;6.33;2.77;;;;;;;;;;5104905;28;20219;-73
2022/06/02 11:46:33;;;;;;;3.83;2.40;;;;;;;;;;5108854;28;20209;-74
2022/06/02 11:49:17;;;;;;;2.30;2.10;;;;;;;;;;5109579;28;20711;-74
2022/06/02 11:51:58;;;;;;;6.10;2.50;;;;;;;;;;5111079;28;20180;-75
2022/06/02 11:54:57;;;;;;;3.30;2.70;;;;;;;;;;5110804;28;20188;-75
2022/06/02 11:57:58;;;;;;;4.07;2.40;;;;;;;;;;5107577;28;20203;-76
2022/06/02 12:00:41;;;;;;;5.53;2.50;;;;;;;;;;5109320;28;20219;-75
2022/06/02 12:03:41;;;;;;;2.80;2.40;;;;;;;;;;5108624;28;20205;-73
2022/06/02 12:06:28;;;;;;;2.80;2.20;;;;;;;;;;5107373;28;20203;-77
2022/06/02 12:09:30;;;;;;;5.47;2.63;;;;;;;;;;5111526;28;20195;-71
2022/06/02 12:12:11;;;;;;;4.47;2.77;;;;;;;;;;5111224;28;20289;-74
2022/06/02 12:15:11;;;;;;;4.30;2.30;;;;;;;;;;5109358;28;20571;-74
2022/06/02 12:17:59;;;;;;;5.33;2.30;;;;;;;;;;5110946;28;20192;-74
2022/06/02 12:20:40;;;;;;;4.83;2.70;;;;;;;;;;5108401;28;20219;-76
2022/06/02 12:23:47;;;;;;;3.07;2.57;;;;;;;;;;5106795;28;20249;-75
2022/06/02 12:26:46;;;;;;;2.60;2.40;;;;;;;;;;5098174;28;20209;-73
2022/06/02 12:29:36;;;;;;;5.47;2.70;;;;;;;;;;5108616;28;20256;-75
2022/06/02 12:32:16;;;;;;;3.03;2.40;;;;;;;;;;5106875;28;20198;-73
2022/06/02 12:35:16;;;;;;;3.50;2.80;;;;;;;;;;5110173;28;20197;-74
2022/06/02 12:37:56;;;;;;;5.63;5.07;;;;;;;;;;5110014;28;20201;-74
2022/06/02 12:40:57;;;;;;;10.47;3.30;;;;;;;;;;5107264;28;20259;-74
2022/06/02 12:43:56;;;;;;;3.20;2.77;;;;;;;;;;5110518;28;20581;-72
2022/06/02 12:46:52;;;;;;;4.93;2.90;;;;;;;;;;5108130;28;20746;-74
2022/06/02 12:49:56;;;;;;;3.87;2.63;;;;;;;;;;5108837;28;20187;-75
2022/06/02 12:53:02;;;;;;;6.60;2.93;;;;;;;;;;5110329;28;20198;-74
2022/06/02 12:55:43;;;;;;;4.80;3.57;;;;;;;;;;5110220;28;20287;-74
2022/06/02 12:58:30;;;;;;;6.20;2.87;;;;;;;;;;5105878;28;20194;-74
2022/06/02 13:01:30;;;;;;;4.77;2.90;;;;;;;;;;5110340;28;20230;-74
2022/06/02 13:04:13;;;;;;;3.20;2.40;;;;;;;;;;5109819;28;20693;-76
2022/06/02 13:06:54;;;;;;;5.07;2.67;;;;;;;;;;5108393;28;20655;-74
2022/06/02 13:09:53;;;;;;;3.27;2.60;;;;;;;;;;5110033;28;20194;-76
2022/06/02 13:12:46;;;;;;;5.13;2.80;;;;;;;;;;5109750;28;20180;-76
2022/06/02 13:15:36;;;;;;;3.63;2.43;;;;;;;;;;5108559;28;20687;-74
2022/06/02 13:18:43;;;;;;;8.83;3.20;;;;;;;;;;5108009;28;20188;-76
2022/06/02 13:21:43;;;;;;;5.10;2.93;;;;;;;;;;5109605;28;20319;-74
2022/06/02 13:24:59;;;;;;;3.90;3.00;;;;;;;;;;5108248;28;20192;-75
2022/06/02 13:27:42;;;;;;;3.30;2.60;;;;;;;;;;5050840;28;20189;-75
2022/06/02 13:30:42;;;;;;;4.97;2.97;;;;;;;;;;5109427;28;20191;-77
2022/06/02 13:33:29;;;;;;;6.00;3.33;;;;;;;;;;5088869;28;20194;-75
2022/06/02 13:36:32;;;;;;;5.37;3.60;;;;;;;;;;5108859;28;20194;-75
2022/06/02 13:39:13;;;;;;;4.43;2.93;;;;;;;;;;5109490;28;20934;-76
2022/06/02 13:42:03;;;;;;;4.83;2.80;;;;;;;;;;5107347;28;20283;-73
2022/06/02 13:44:44;;;;;;;4.13;2.83;;;;;;;;;;5108760;28;20247;-73
2022/06/02 13:47:24;;;;;;;4.77;2.80;;;;;;;;;;5116312;27;20201;-73
2022/06/02 13:50:10;;;;;;;5.60;2.83;;;;;;;;;;5095953;28;20238;-73
2022/06/02 13:52:49;;;;;;;3.70;2.90;;;;;;;;;;5089270;28;20666;-74
2022/06/02 13:58:33;;;;;;;3.80;2.47;;;;;;;;;;5087156;28;20196;-75
2022/06/02 14:01:19;;;;;;;4.20;2.90;;;;;;;;;;5088251;28;20714;-74
2022/06/02 14:04:05;;;;;;;2.80;2.50;;;;;;;;;;5085932;28;20194;-73
2022/06/02 14:06:51;;;;;;;2.80;2.47;;;;;;;;;;5100444;28;20681;-75
2022/06/02 14:09:39;;;;;;;3.13;2.60;;;;;;;;;;5108579;28;20183;-75
2022/06/02 14:12:30;;;;;;;3.23;2.93;;;;;;;;;;5105150;28;20578;-75
2022/06/02 14:15:00;;;;;;;6.90;2.60;;;;;;;;;;5108036;28;20824;-73
2022/06/02 14:17:48;;;;;;;4.00;2.40;;;;;;;;;;5106858;28;20196;-74
2022/06/02 14:20:33;;;;;;;3.10;2.30;;;;;;;;;;5107290;28;20194;-75
2022/06/02 14:23:00;;;;;;;3.50;2.40;;;;;;;;;;5107344;28;21013;-75
2022/06/02 14:25:46;;;;;;;4.23;2.40;;;;;;;;;;5107543;28;20190;-73
2022/06/02 14:28:33;;;;;;;4.17;2.53;;;;;;;;;;5107753;28;20562;-75
2022/06/02 14:31:07;;;;;;;4.90;2.70;;;;;;;;;;5108741;28;20200;-75
2022/06/02 14:33:36;;;;;;;4.27;2.57;;;;;;;;;;5106952;28;20319;-75
2022/06/02 14:36:11;;;;;;;5.23;2.40;;;;;;;;;;5107337;28;20188;-75
2022/06/02 14:38:43;;;;;;;4.50;2.60;;;;;;;;;;5106402;28;20638;-73
2022/06/02 14:41:28;;;;;;;4.63;2.37;;;;;;;;;;5106017;28;20251;-76
2022/06/02 14:44:01;;;;;;;3.30;2.13;;;;;;;;;;5089848;28;20200;-74
2022/06/02 14:46:51;;;;;;;4.53;2.57;;;;;;;;;;5106892;28;20188;-74
2022/06/02 14:49:18;;;;;;;5.60;2.73;;;;;;;;;;5099985;28;20196;-75
2022/06/02 14:51:53;;;;;;;6.40;2.90;;;;;;;;;;5107719;28;20180;-73
2022/06/02 14:54:39;;;;;;;3.50;2.60;;;;;;;;;;5106811;28;20195;-74
2022/06/02 14:57:31;;;;;;;6.37;2.80;;;;;;;;;;5108217;28;20191;-75
2022/06/02 15:00:25;;;;;;;2.60;2.40;;;;;;;;;;5088881;28;20199;-76
2022/06/02 15:02:55;;;;;;;7.03;2.53;;;;;;;;;;5106259;28;20511;-75
2022/06/02 15:05:28;;;;;;;2.83;2.30;;;;;;;;;;5107426;28;20180;-74
2022/06/02 15:07:55;;;;;;;2.57;2.37;;;;;;;;;;5106867;28;20192;-78
2022/06/02 15:10:41;;;;;;;5.10;2.80;;;;;;;;;;5108372;28;20195;-75
2022/06/02 15:13:24;;;;;;;3.87;2.60;;;;;;;;;;5089316;28;20199;-76
2022/06/02 15:15:54;;;;;;;4.10;2.90;;;;;;;;;;5105818;28;20659;-76
2022/06/02 15:18:36;;;;;;;4.27;2.43;;;;;;;;;;5108234;28;20621;-75
2022/06/02 15:21:15;;;;;;;7.80;2.67;;;;;;;;;;5105611;28;20217;-74
2022/06/02 15:23:57;;;;;;;7.97;3.00;;;;;;;;;;5108060;28;20740;-73
2022/06/02 15:26:24;;;;;;;2.93;2.50;;;;;;;;;;5107029;28;20713;-74
2022/06/02 15:29:10;;;;;;;4.60;2.83;;;;;;;;;;5106539;28;20191;-73
2022/06/02 15:32:06;;;;;;;4.80;2.50;;;;;;;;;;5106547;28;20196;-72
2022/06/02 15:34:47;;;;;;;4.00;2.60;;;;;;;;;;5106487;28;20188;-72
2022/06/02 15:37:17;;;;;;;4.73;2.43;;;;;;;;;;5106898;28;20567;-72
2022/06/02 15:39:59;;;;;;;3.50;2.30;;;;;;;;;;5107023;28;20237;-74
2022/06/02 15:42:41;;;;;;;3.83;2.47;;;;;;;;;;5109123;28;20212;-72
2022/06/02 15:45:27;;;;;;;4.10;2.40;;;;;;;;;;5114280;28;20702;-75
2022/06/02 15:48:09;;;;;;;5.30;2.80;;;;;;;;;;5120399;28;20192;-72
2022/06/02 15:50:36;;;;;;;3.67;3.00;;;;;;;;;;5114231;28;20192;-72
2022/06/02 15:53:05;;;;;;;5.10;2.83;;;;;;;;;;5117513;28;20188;-71
2022/06/02 15:55:47;;;;;;;3.17;2.40;;;;;;;;;;5133248;28;20191;-75
2022/06/02 15:58:27;;;;;;;7.90;2.60;;;;;;;;;;5128992;27;20202;-75
2022/06/02 16:00:54;;;;;;;3.87;2.70;;;;;;;;;;5129190;27;20252;-75
2022/06/02 16:03:41;;;;;;;4.90;2.30;;;;;;;;;;5128806;27;20252;-76
2022/06/02 16:06:26;;;;;;;2.87;1.80;;;;;;;;;;5128126;28;20176;-76
2022/06/02 16:12:11;;;;;;;3.60;2.07;;;;;;;;;;5127518;27;20184;-74
2022/06/02 16:14:45;;;;;;;5.57;2.37;;;;;;;;;;5128780;27;20194;-75
2022/06/02 16:17:31;;;;;;;3.40;1.93;;;;;;;;;;5126941;27;20188;-75
2022/06/02 16:20:16;;;;;;;4.43;2.23;;;;;;;;;;5128097;28;20212;-73
2022/06/02 16:22:49;;;;;;;3.87;2.00;;;;;;;;;;5127911;27;20227;-73
2022/06/02 16:25:34;;;;;;;3.13;2.23;;;;;;;;;;5126509;27;20184;-74
2022/06/02 16:28:23;;;;;;;2.27;2.07;;;;;;;;;;5128147;27;20276;-75